createdAt,value
2023-03-21T00:00:35.808Z,3.60
2023-03-21T00:01:38.481Z,3.68
2023-03-21T00:02:41.334Z,3.46
2023-03-21T00:03:44.182Z,3.61
2023-03-21T00:04:52.311Z,3.76
2023-03-21T00:05:51.368Z,3.45
2023-03-21T00:06:54.012Z,3.64
2023-03-21T00:07:56.649Z,3.57
2023-03-21T00:08:59.239Z,3.32
2023-03-21T00:10:14.334Z,3.42
2023-03-21T00:11:06.504Z,3.65
2023-03-21T00:12:09.377Z,3.69
2023-03-21T00:13:12.250Z,3.33
2023-03-21T00:14:14.923Z,3.41
2023-03-21T00:15:20.594Z,3.36
2023-03-21T00:16:29.829Z,3.59
2023-03-21T00:17:26.717Z,3.39
2023-03-21T00:18:29.291Z,3.98
2023-03-21T00:19:32.261Z,3.65
2023-03-21T00:20:35.139Z,3.10
2023-03-21T00:21:49.160Z,3.87
2023-03-21T00:22:41.935Z,3.91
2023-03-21T00:23:44.626Z,3.86
2023-03-21T00:24:47.248Z,3.62
2023-03-21T00:25:50.337Z,3.63
2023-03-21T00:26:53.737Z,4.15
2023-03-21T00:28:07.463Z,3.55
2023-03-21T00:29:00.699Z,3.91
2023-03-21T00:30:03.374Z,3.58
2023-03-21T00:31:06.337Z,4.22
2023-03-21T00:32:08.806Z,4.00
2023-03-21T00:33:21.973Z,4.04
2023-03-21T00:34:17.648Z,3.85
2023-03-21T00:35:53.425Z,3.51
2023-03-21T00:36:24.440Z,4.09
2023-03-21T00:37:27.068Z,3.76
2023-03-21T00:38:29.847Z,3.48
2023-03-21T00:39:32.519Z,3.78
2023-03-21T00:40:40.843Z,3.45
2023-03-21T00:41:42.961Z,3.69
2023-03-21T00:42:43.901Z,3.43
2023-03-21T00:43:46.698Z,3.37
2023-03-21T00:44:49.649Z,3.86
2023-03-21T00:45:52.636Z,3.67
2023-03-21T00:47:06.453Z,3.79
2023-03-21T00:48:00.128Z,3.46
2023-03-21T00:49:02.893Z,3.58
2023-03-21T00:50:05.767Z,3.66
2023-03-21T00:51:08.537Z,3.89
2023-03-21T00:52:27.589Z,3.42
2023-03-21T00:53:15.415Z,3.86
2023-03-21T00:54:18.082Z,3.83
2023-03-21T00:55:20.545Z,3.29
2023-03-21T00:56:23.648Z,3.78
2023-03-21T00:57:37.936Z,4.06
2023-03-21T00:58:31.219Z,3.53
2023-03-21T00:59:34.508Z,3.05
2023-03-21T01:00:37.200Z,3.59
2023-03-21T01:01:39.937Z,3.72
2023-03-21T01:02:43.412Z,3.75
2023-03-21T01:03:46.205Z,3.63
2023-03-21T01:04:48.876Z,3.58
2023-03-21T01:05:51.440Z,3.33
2023-03-21T01:06:54.020Z,3.38
2023-03-21T01:07:58.830Z,3.32
2023-03-21T01:09:01.813Z,3.75
2023-03-21T01:10:04.394Z,3.77
2023-03-21T01:11:07.044Z,3.62
2023-03-21T01:12:09.613Z,3.48
2023-03-21T01:13:12.491Z,3.52
2023-03-21T01:14:22.429Z,3.18
2023-03-21T01:15:19.776Z,3.58
2023-03-21T01:16:22.615Z,3.93
2023-03-21T01:17:25.431Z,4.06
2023-03-21T01:18:28.401Z,3.86
2023-03-21T01:19:48.331Z,3.58
2023-03-21T01:20:35.582Z,3.71
2023-03-21T01:21:38.695Z,3.75
2023-03-21T01:22:41.333Z,3.75
2023-03-21T01:23:43.994Z,3.38
2023-03-21T01:24:55.094Z,3.71
2023-03-21T01:25:51.184Z,3.61
2023-03-21T01:26:53.851Z,3.55
2023-03-21T01:27:56.620Z,3.69
2023-03-21T01:28:59.392Z,3.64
2023-03-21T01:30:02.596Z,3.39
2023-03-21T01:31:05.604Z,3.90
2023-03-21T01:32:08.536Z,3.65
2023-03-21T01:33:11.199Z,3.48
2023-03-21T01:34:14.012Z,3.68
2023-03-21T01:35:16.640Z,3.62
2023-03-21T01:36:22.676Z,3.41
2023-03-21T01:37:23.727Z,3.78
2023-03-21T01:38:26.699Z,4.06
2023-03-21T01:39:29.782Z,4.15
2023-03-21T01:40:32.346Z,3.67
2023-03-21T01:41:44.431Z,4.22
2023-03-21T01:42:39.939Z,3.63
2023-03-21T01:43:42.506Z,3.99
2023-03-21T01:44:45.504Z,3.79
2023-03-21T01:45:48.557Z,3.55
2023-03-21T01:47:09.273Z,3.46
2023-03-21T01:47:55.691Z,3.70
2023-03-21T01:48:59.331Z,3.72
2023-03-21T01:50:02.322Z,3.34
2023-03-21T01:51:05.087Z,4.09
2023-03-21T01:52:14.022Z,4.23
2023-03-21T01:53:12.071Z,3.91
2023-03-21T01:54:14.939Z,3.91
2023-03-21T01:55:18.046Z,3.82
2023-03-21T01:56:20.991Z,3.49
2023-03-21T01:57:25.813Z,3.52
2023-03-21T01:58:28.282Z,3.87
2023-03-21T01:59:31.055Z,3.92
2023-03-21T02:00:34.316Z,4.27
2023-03-21T02:01:37.111Z,3.73
2023-03-21T02:02:39.981Z,3.41
2023-03-21T02:03:42.831Z,3.88
2023-03-21T02:04:45.423Z,3.67
2023-03-21T02:05:47.996Z,3.71
2023-03-21T02:06:50.771Z,3.56
2023-03-21T02:07:53.552Z,3.38
2023-03-21T02:08:56.109Z,3.17
2023-03-21T02:09:58.669Z,3.35
2023-03-21T02:11:01.201Z,3.87
2023-03-21T02:12:04.114Z,3.83
2023-03-21T02:13:06.992Z,3.52
2023-03-21T02:14:11.511Z,3.86
2023-03-21T02:15:14.486Z,3.48
2023-03-21T02:16:17.633Z,3.55
2023-03-21T02:17:20.456Z,3.36
2023-03-21T02:18:23.305Z,3.28
2023-03-21T02:19:34.151Z,3.15
2023-03-21T02:20:30.390Z,3.39
2023-03-21T02:21:33.361Z,2.99
2023-03-21T02:22:36.138Z,3.33
2023-03-21T02:23:39.020Z,3.37
2023-03-21T02:24:46.254Z,3.31
2023-03-21T02:25:46.405Z,3.32
2023-03-21T02:26:57.985Z,3.00
2023-03-21T02:27:53.687Z,3.38
2023-03-21T02:28:56.664Z,3.00
2023-03-21T02:29:59.542Z,3.62
2023-03-21T02:31:02.469Z,3.43
2023-03-21T02:32:16.498Z,2.98
2023-03-21T02:33:10.013Z,3.24
2023-03-21T02:34:13.104Z,3.25
2023-03-21T02:35:15.959Z,3.25
2023-03-21T02:36:18.896Z,2.85
2023-03-21T02:37:28.934Z,3.44
2023-03-21T02:38:26.447Z,3.49
2023-03-21T02:39:29.206Z,3.74
2023-03-21T02:40:32.080Z,3.39
2023-03-21T02:41:40.144Z,3.43
2023-03-21T02:42:39.379Z,3.30
2023-03-21T02:43:42.360Z,3.34
2023-03-21T02:44:45.114Z,3.55
2023-03-21T02:45:48.032Z,3.25
2023-03-21T02:46:59.739Z,3.22
2023-03-21T02:47:55.610Z,3.26
2023-03-21T02:48:58.285Z,3.20
2023-03-21T02:50:01.117Z,3.01
2023-03-21T02:51:03.905Z,3.18
2023-03-21T02:52:15.672Z,3.24
2023-03-21T02:53:10.764Z,3.33
2023-03-21T02:54:42.057Z,3.76
2023-03-21T02:55:17.746Z,3.88
2023-03-21T02:56:20.419Z,4.18
2023-03-21T02:57:25.508Z,3.78
2023-03-21T02:58:28.214Z,3.57
2023-03-21T02:59:30.777Z,3.32
2023-03-21T03:00:33.426Z,3.08
2023-03-21T03:01:36.204Z,3.87
2023-03-21T03:02:38.891Z,3.58
2023-03-21T03:03:41.667Z,3.41
2023-03-21T03:04:44.365Z,3.65
2023-03-21T03:05:47.420Z,3.42
2023-03-21T03:06:50.291Z,3.57
2023-03-21T03:07:53.165Z,3.25
2023-03-21T03:09:02.251Z,3.30
2023-03-21T03:10:01.787Z,3.37
2023-03-21T03:11:05.269Z,3.59
2023-03-21T03:12:08.367Z,3.55
2023-03-21T03:13:11.127Z,3.84
2023-03-21T03:14:38.507Z,3.74
2023-03-21T03:15:19.130Z,3.19
2023-03-21T03:16:21.908Z,3.66
2023-03-21T03:17:26.295Z,3.33
2023-03-21T03:18:29.190Z,3.51
2023-03-21T03:19:36.663Z,3.17
2023-03-21T03:20:37.062Z,3.33
2023-03-21T03:21:39.968Z,3.54
2023-03-21T03:22:42.940Z,3.20
2023-03-21T03:23:45.714Z,3.44
2023-03-21T03:24:49.296Z,3.17
2023-03-21T03:25:52.175Z,2.93
2023-03-21T03:26:54.852Z,3.21
2023-03-21T03:27:57.729Z,3.35
2023-03-21T03:29:00.496Z,3.38
2023-03-21T03:30:03.565Z,3.84
2023-03-21T03:31:09.519Z,3.42
2023-03-21T03:32:10.551Z,3.31
2023-03-21T03:33:13.314Z,3.62
2023-03-21T03:34:15.911Z,3.61
2023-03-21T03:35:19.166Z,3.63
2023-03-21T03:36:31.650Z,3.66
2023-03-21T03:37:26.046Z,3.59
2023-03-21T03:38:28.713Z,3.11
2023-03-21T03:39:31.381Z,3.10
2023-03-21T03:40:35.862Z,3.27
2023-03-21T03:42:03.012Z,3.65
2023-03-21T03:42:42.466Z,3.40
2023-03-21T03:43:45.132Z,3.52
2023-03-21T03:44:47.700Z,3.57
2023-03-21T03:45:50.680Z,3.63
2023-03-21T03:46:53.708Z,3.52
2023-03-21T03:47:57.668Z,3.48
2023-03-21T03:49:00.338Z,3.82
2023-03-21T03:50:02.995Z,4.13
2023-03-21T03:51:05.971Z,4.05
2023-03-21T03:52:08.540Z,4.07
2023-03-21T03:53:18.132Z,3.78
2023-03-21T03:54:15.311Z,3.71
2023-03-21T03:55:18.128Z,4.05
2023-03-21T03:56:21.072Z,3.55
2023-03-21T03:57:23.628Z,3.92
2023-03-21T03:58:39.441Z,3.45
2023-03-21T03:59:30.508Z,3.68
2023-03-21T04:00:33.386Z,3.62
2023-03-21T04:01:36.270Z,3.52
2023-03-21T04:02:39.084Z,3.36
2023-03-21T04:03:49.841Z,3.51
2023-03-21T04:04:46.247Z,3.43
2023-03-21T04:05:49.097Z,3.86
2023-03-21T04:06:52.168Z,3.77
2023-03-21T04:07:54.944Z,3.73
2023-03-21T04:08:58.113Z,3.57
2023-03-21T04:10:01.002Z,3.49
2023-03-21T04:11:04.080Z,3.56
2023-03-21T04:12:07.156Z,3.35
2023-03-21T04:13:10.146Z,3.09
2023-03-21T04:14:13.028Z,3.76
2023-03-21T04:15:15.992Z,3.68
2023-03-21T04:16:19.124Z,3.77
2023-03-21T04:17:22.454Z,4.03
2023-03-21T04:18:25.328Z,3.82
2023-03-21T04:19:28.206Z,3.78
2023-03-21T04:20:43.209Z,3.48
2023-03-21T04:21:35.797Z,3.87
2023-03-21T04:22:38.671Z,3.51
2023-03-21T04:23:41.474Z,3.78
2023-03-21T04:24:44.213Z,3.88
2023-03-21T04:25:55.901Z,3.63
2023-03-21T04:26:51.495Z,3.71
2023-03-21T04:27:54.503Z,3.57
2023-03-21T04:28:57.365Z,3.38
2023-03-21T04:30:00.144Z,3.48
2023-03-21T04:31:08.893Z,3.50
2023-03-21T04:32:07.364Z,3.68
2023-03-21T04:33:10.590Z,3.88
2023-03-21T04:34:13.464Z,3.78
2023-03-21T04:35:16.247Z,3.96
2023-03-21T04:36:19.124Z,3.81
2023-03-21T04:37:23.216Z,3.33
2023-03-21T04:38:25.785Z,3.96
2023-03-21T04:39:28.452Z,3.84
2023-03-21T04:40:31.015Z,3.84
2023-03-21T04:41:33.800Z,3.74
2023-03-21T04:42:36.559Z,3.84
2023-03-21T04:43:39.232Z,3.73
2023-03-21T04:44:41.899Z,3.72
2023-03-21T04:45:44.716Z,3.13
2023-03-21T04:46:47.476Z,3.70
2023-03-21T04:47:50.519Z,3.65
2023-03-21T04:48:53.809Z,3.71
2023-03-21T04:49:57.195Z,3.94
2023-03-21T04:51:00.276Z,3.49
2023-03-21T04:52:03.353Z,3.98
2023-03-21T04:53:06.229Z,3.65
2023-03-21T04:55:10.698Z,3.48
2023-03-21T04:56:13.629Z,3.82
2023-03-21T04:57:16.501Z,3.55
2023-03-21T04:58:19.372Z,3.82
2023-03-21T04:59:22.550Z,3.50
2023-03-21T05:00:25.641Z,3.21
2023-03-21T05:01:28.485Z,3.56
2023-03-21T05:02:31.401Z,3.89
2023-03-21T05:03:34.321Z,3.26
2023-03-21T05:04:37.538Z,3.68
2023-03-21T05:05:40.524Z,3.76
2023-03-21T05:06:43.391Z,3.35
2023-03-21T05:07:46.381Z,3.62
2023-03-21T05:08:49.156Z,3.55
2023-03-21T05:09:52.631Z,3.58
2023-03-21T05:10:55.814Z,3.20
2023-03-21T05:11:59.985Z,3.19
2023-03-21T05:13:02.588Z,3.04
2023-03-21T05:14:05.564Z,3.48
2023-03-21T05:15:08.951Z,3.36
2023-03-21T05:16:12.029Z,3.98
2023-03-21T05:17:15.021Z,3.60
2023-03-21T05:18:17.895Z,3.02
2023-03-21T05:19:20.855Z,3.52
2023-03-21T05:20:23.835Z,3.53
2023-03-21T05:21:27.126Z,3.51
2023-03-21T05:22:29.789Z,3.15
2023-03-21T05:23:36.047Z,3.74
2023-03-21T05:24:39.644Z,3.69
2023-03-21T05:25:42.301Z,3.79
2023-03-21T05:26:45.177Z,3.28
2023-03-21T05:27:48.063Z,3.73
2023-03-21T05:28:51.229Z,3.38
2023-03-21T05:29:53.906Z,3.26
2023-03-21T05:30:58.837Z,3.49
2023-03-21T05:32:01.608Z,3.38
2023-03-21T05:33:04.886Z,3.34
2023-03-21T05:34:07.979Z,3.32
2023-03-21T05:35:10.837Z,3.61
2023-03-21T05:36:13.438Z,4.01
2023-03-21T05:37:16.456Z,3.65
2023-03-21T05:38:19.417Z,3.46
2023-03-21T05:39:22.230Z,3.23
2023-03-21T05:40:25.209Z,3.08
2023-03-21T05:41:28.394Z,3.54
2023-03-21T05:42:31.077Z,2.78
2023-03-21T05:43:33.641Z,3.42
2023-03-21T05:44:36.401Z,3.47
2023-03-21T05:45:39.296Z,2.93
2023-03-21T05:46:42.563Z,3.35
2023-03-21T05:47:45.492Z,3.38
2023-03-21T05:48:48.438Z,2.72
2023-03-21T05:49:51.311Z,2.98
2023-03-21T05:50:54.170Z,3.07
2023-03-21T05:51:57.342Z,3.54
2023-03-21T05:53:00.214Z,3.36
2023-03-21T05:54:03.094Z,3.10
2023-03-21T05:55:05.964Z,3.44
2023-03-21T05:56:09.160Z,3.30
2023-03-21T05:57:12.754Z,2.98
2023-03-21T05:58:15.417Z,2.66
2023-03-21T05:59:18.495Z,3.05
2023-03-21T06:00:21.365Z,3.04
2023-03-21T06:01:24.352Z,2.94
2023-03-21T06:02:27.652Z,3.25
2023-03-21T06:03:30.595Z,3.25
2023-03-21T06:04:34.421Z,3.39
2023-03-21T06:05:40.654Z,3.26
2023-03-21T06:06:43.531Z,2.99
2023-03-21T06:07:46.716Z,2.97
2023-03-21T06:08:49.648Z,3.01
2023-03-21T06:09:53.078Z,3.19
2023-03-21T06:10:55.856Z,3.22
2023-03-21T06:11:58.831Z,3.17
2023-03-21T06:13:01.804Z,3.52
2023-03-21T06:14:04.693Z,3.12
2023-03-21T06:15:07.755Z,3.18
2023-03-21T06:16:10.975Z,3.28
2023-03-21T06:17:14.133Z,3.10
2023-03-21T06:18:17.106Z,2.98
2023-03-21T06:19:19.876Z,2.83
2023-03-21T06:20:22.538Z,3.11
2023-03-21T06:21:26.875Z,2.71
2023-03-21T06:22:29.519Z,3.06
2023-03-21T06:23:32.294Z,3.13
2023-03-21T06:24:36.863Z,3.16
2023-03-21T06:25:39.721Z,3.58
2023-03-21T06:26:42.559Z,3.37
2023-03-21T06:27:45.225Z,2.75
2023-03-21T06:28:48.096Z,3.22
2023-03-21T06:29:50.864Z,3.00
2023-03-21T06:30:53.537Z,2.67
2023-03-21T06:31:56.312Z,3.38
2023-03-21T06:32:59.081Z,2.89
2023-03-21T06:34:01.871Z,3.02
2023-03-21T06:35:04.830Z,3.01
2023-03-21T06:36:08.055Z,3.03
2023-03-21T06:37:11.091Z,2.86
2023-03-21T06:38:13.761Z,3.42
2023-03-21T06:39:16.749Z,3.19
2023-03-21T06:40:19.835Z,3.26
2023-03-21T06:41:23.209Z,3.42
2023-03-21T06:42:25.978Z,3.44
2023-03-21T06:43:28.848Z,2.88
2023-03-21T06:44:31.940Z,2.84
2023-03-21T06:45:36.025Z,2.95
2023-03-21T06:46:39.126Z,2.85
2023-03-21T06:47:42.134Z,3.05
2023-03-21T06:48:45.583Z,3.06
2023-03-21T06:49:48.762Z,2.93
2023-03-21T06:50:54.306Z,2.79
2023-03-21T06:51:57.069Z,2.73
2023-03-21T06:53:00.559Z,3.15
2023-03-21T06:54:03.337Z,3.15
2023-03-21T06:55:06.413Z,3.63
2023-03-21T06:56:08.982Z,2.81
2023-03-21T06:57:11.850Z,2.99
2023-03-21T06:58:14.728Z,3.03
2023-03-21T06:59:17.609Z,3.25
2023-03-21T07:00:20.892Z,2.68
2023-03-21T07:01:23.863Z,2.79
2023-03-21T07:02:26.875Z,2.73
2023-03-21T07:03:32.397Z,2.38
2023-03-21T07:04:35.874Z,2.50
2023-03-21T07:05:40.180Z,2.70
2023-03-21T07:06:43.482Z,2.54
2023-03-21T07:07:46.335Z,2.56
2023-03-21T07:08:49.897Z,2.78
2023-03-21T07:09:52.905Z,2.52
2023-03-21T07:11:01.342Z,2.55
2023-03-21T07:12:04.281Z,2.86
2023-03-21T07:13:07.261Z,2.68
2023-03-21T07:14:10.546Z,2.35
2023-03-21T07:15:13.730Z,3.03
2023-03-21T07:16:17.401Z,2.83
2023-03-21T07:17:20.709Z,2.53
2023-03-21T07:18:23.689Z,2.76
2023-03-21T07:19:26.593Z,2.53
2023-03-21T07:20:29.649Z,2.70
2023-03-21T07:21:32.824Z,2.87
2023-03-21T07:22:36.244Z,3.48
2023-03-21T07:23:39.285Z,2.68
2023-03-21T07:24:42.991Z,2.80
2023-03-21T07:25:49.160Z,2.59
2023-03-21T07:26:52.555Z,2.89
2023-03-21T07:27:55.497Z,2.78
2023-03-21T07:28:58.678Z,3.30
2023-03-21T07:30:01.353Z,2.99
2023-03-21T07:31:04.255Z,2.96
2023-03-21T07:32:07.430Z,2.61
2023-03-21T07:33:10.199Z,2.60
2023-03-21T07:34:13.377Z,2.91
2023-03-21T07:35:16.459Z,2.82
2023-03-21T07:36:19.262Z,3.06
2023-03-21T07:37:23.212Z,3.25
2023-03-21T07:38:26.195Z,3.07
2023-03-21T07:39:28.854Z,3.08
2023-03-21T07:40:31.527Z,2.88
2023-03-21T07:41:34.404Z,3.05
2023-03-21T07:42:37.285Z,3.03
2023-03-21T07:43:39.756Z,2.97
2023-03-21T07:44:42.426Z,2.69
2023-03-21T07:45:45.190Z,2.67
2023-03-21T07:46:48.116Z,3.12
2023-03-21T07:47:51.216Z,2.69
2023-03-21T07:48:54.212Z,3.06
2023-03-21T07:49:57.189Z,2.73
2023-03-21T07:51:00.101Z,2.50
2023-03-21T07:52:04.671Z,3.08
2023-03-21T07:53:06.966Z,3.03
2023-03-21T07:54:09.720Z,2.93
2023-03-21T07:55:12.804Z,2.67
2023-03-21T07:56:16.122Z,2.79
2023-03-21T07:57:19.172Z,2.68
2023-03-21T07:58:22.050Z,2.70
2023-03-21T07:59:24.706Z,3.11
2023-03-21T08:00:27.482Z,2.92
2023-03-21T08:01:30.152Z,2.66
2023-03-21T08:02:34.124Z,2.83
2023-03-21T08:03:37.065Z,2.89
2023-03-21T08:04:39.904Z,3.02
2023-03-21T08:05:42.788Z,3.28
2023-03-21T08:06:45.851Z,3.12
2023-03-21T08:07:48.728Z,2.70
2023-03-21T08:08:51.503Z,2.77
2023-03-21T08:09:55.500Z,2.98
2023-03-21T08:10:58.374Z,2.74
2023-03-21T08:12:01.324Z,3.01
2023-03-21T08:13:04.124Z,2.81
2023-03-21T08:14:07.105Z,2.98
2023-03-21T08:15:09.702Z,3.20
2023-03-21T08:16:12.243Z,2.78
2023-03-21T08:17:14.798Z,2.55
2023-03-21T08:18:17.579Z,2.62
2023-03-21T08:19:20.248Z,2.69
2023-03-21T08:20:22.813Z,2.99
2023-03-21T08:21:25.391Z,2.82
2023-03-21T08:22:33.508Z,2.84
2023-03-21T08:23:36.044Z,2.90
2023-03-21T08:24:39.230Z,3.15
2023-03-21T08:25:41.907Z,2.64
2023-03-21T08:26:44.588Z,3.31
2023-03-21T08:27:47.344Z,2.68
2023-03-21T08:28:50.318Z,3.10
2023-03-21T08:29:53.697Z,2.84
2023-03-21T08:30:56.777Z,3.24
2023-03-21T08:31:59.575Z,2.88
2023-03-21T08:33:02.432Z,2.73
2023-03-21T08:34:05.302Z,2.59
2023-03-21T08:35:08.175Z,2.83
2023-03-21T08:36:11.092Z,2.81
2023-03-21T08:37:13.935Z,3.10
2023-03-21T08:38:16.750Z,2.86
2023-03-21T08:39:19.615Z,2.89
2023-03-21T08:40:22.558Z,3.01
2023-03-21T08:41:25.325Z,2.73
2023-03-21T08:42:28.202Z,2.69
2023-03-21T08:43:31.071Z,3.55
2023-03-21T08:44:33.844Z,2.77
2023-03-21T08:45:37.522Z,2.82
2023-03-21T08:46:40.478Z,2.48
2023-03-21T08:47:43.321Z,2.38
2023-03-21T08:48:46.068Z,2.59
2023-03-21T08:49:48.931Z,2.50
2023-03-21T08:50:51.915Z,2.42
2023-03-21T08:51:54.795Z,2.38
2023-03-21T08:52:57.458Z,2.55
2023-03-21T08:54:00.332Z,2.89
2023-03-21T08:55:03.218Z,2.52
2023-03-21T08:56:06.180Z,2.81
2023-03-21T08:57:09.073Z,3.92
2023-03-21T08:58:11.849Z,3.55
2023-03-21T08:59:14.699Z,3.26
2023-03-21T09:00:22.919Z,3.02
2023-03-21T09:01:25.735Z,2.82
2023-03-21T09:02:28.451Z,2.93
2023-03-21T09:03:32.731Z,2.97
2023-03-21T09:04:35.607Z,2.91
2023-03-21T09:05:38.726Z,2.95
2023-03-21T09:06:42.004Z,2.73
2023-03-21T09:07:44.779Z,2.82
2023-03-21T09:08:47.758Z,2.75
2023-03-21T09:09:58.086Z,2.85
2023-03-21T09:10:54.842Z,2.65
2023-03-21T09:11:57.615Z,2.20
2023-03-21T09:13:00.180Z,2.46
2023-03-21T09:14:02.849Z,2.56
2023-03-21T09:15:05.513Z,3.22
2023-03-21T09:16:08.345Z,3.83
2023-03-21T09:17:11.353Z,2.95
2023-03-21T09:18:13.937Z,2.55
2023-03-21T09:19:18.239Z,2.99
2023-03-21T09:20:20.849Z,2.94
2023-03-21T09:21:23.579Z,2.98
2023-03-21T09:22:26.248Z,2.91
2023-03-21T09:23:28.909Z,2.77
2023-03-21T09:24:31.380Z,2.53
2023-03-21T09:25:33.960Z,2.65
2023-03-21T09:26:36.621Z,2.79
2023-03-21T09:27:39.392Z,3.01
2023-03-21T09:28:42.258Z,2.75
2023-03-21T09:29:45.155Z,2.57
2023-03-21T09:30:47.706Z,2.83
2023-03-21T09:31:50.781Z,2.81
2023-03-21T09:32:55.327Z,2.78
2023-03-21T09:33:58.010Z,2.65
2023-03-21T09:35:00.639Z,2.52
2023-03-21T09:36:03.357Z,2.40
2023-03-21T09:37:06.592Z,2.35
2023-03-21T09:38:09.476Z,2.28
2023-03-21T09:39:12.340Z,2.13
2023-03-21T09:40:15.514Z,2.41
2023-03-21T09:41:18.804Z,2.28
2023-03-21T09:42:21.990Z,2.46
2023-03-21T09:43:24.975Z,2.45
2023-03-21T09:44:27.842Z,2.58
2023-03-21T09:45:30.610Z,2.38
2023-03-21T09:46:33.546Z,1.99
2023-03-21T09:47:36.364Z,2.27
2023-03-21T09:48:46.945Z,2.10
2023-03-21T09:49:43.957Z,2.12
2023-03-21T09:50:46.727Z,2.14
2023-03-21T09:51:51.139Z,2.37
2023-03-21T09:52:53.935Z,2.29
2023-03-21T09:53:57.217Z,2.45
2023-03-21T09:55:02.934Z,2.45
2023-03-21T09:56:05.811Z,2.51
2023-03-21T09:57:08.583Z,2.64
2023-03-21T09:58:11.259Z,2.51
2023-03-21T09:59:13.821Z,2.41
2023-03-21T10:00:16.592Z,2.21
2023-03-21T10:01:19.336Z,2.68
2023-03-21T10:02:21.930Z,2.45
2023-03-21T10:03:24.697Z,2.53
2023-03-21T10:04:27.466Z,2.56
2023-03-21T10:05:30.155Z,2.49
2023-03-21T10:06:32.831Z,2.71
2023-03-21T10:07:35.589Z,2.51
2023-03-21T10:08:38.466Z,2.58
2023-03-21T10:09:41.643Z,3.00
2023-03-21T10:10:44.425Z,2.92
2023-03-21T10:11:47.298Z,2.14
2023-03-21T10:12:50.063Z,2.85
2023-03-21T10:13:52.852Z,2.75
2023-03-21T10:14:57.606Z,2.46
2023-03-21T10:16:00.312Z,2.30
2023-03-21T10:17:03.500Z,2.55
2023-03-21T10:18:06.275Z,2.37
2023-03-21T10:19:09.323Z,2.28
2023-03-21T10:20:12.385Z,2.51
2023-03-21T10:21:37.385Z,2.48
2023-03-21T10:22:21.261Z,2.31
2023-03-21T10:23:24.140Z,2.27
2023-03-21T10:24:27.424Z,2.28
2023-03-21T10:25:31.112Z,2.23
2023-03-21T10:26:33.996Z,2.38
2023-03-21T10:27:36.872Z,2.29
2023-03-21T10:28:52.498Z,2.24
2023-03-21T10:29:44.063Z,1.99
2023-03-21T10:30:47.048Z,2.35
2023-03-21T10:31:49.927Z,2.32
2023-03-21T10:32:52.810Z,2.22
2023-03-21T10:33:55.843Z,2.42
2023-03-21T10:34:58.930Z,2.38
2023-03-21T10:36:02.681Z,2.65
2023-03-21T10:37:07.128Z,2.07
2023-03-21T10:38:10.100Z,2.52
2023-03-21T10:39:13.489Z,2.39
2023-03-21T10:40:17.093Z,2.55
2023-03-21T10:41:20.577Z,2.34
2023-03-21T10:42:23.257Z,2.54
2023-03-21T10:43:25.824Z,2.27
2023-03-21T10:44:28.392Z,2.19
2023-03-21T10:45:31.067Z,2.18
2023-03-21T10:46:36.146Z,2.62
2023-03-21T10:47:39.774Z,2.28
2023-03-21T10:48:42.544Z,2.15
2023-03-21T10:50:06.323Z,2.04
2023-03-21T10:50:50.205Z,2.26
2023-03-21T10:51:52.811Z,1.91
2023-03-21T10:52:55.577Z,2.19
2023-03-21T10:53:58.455Z,2.12
2023-03-21T10:55:02.143Z,2.15
2023-03-21T10:56:05.028Z,2.02
2023-03-21T10:57:07.907Z,2.05
2023-03-21T10:58:12.809Z,2.39
2023-03-21T10:59:15.799Z,2.35
2023-03-21T11:00:18.814Z,2.17
2023-03-21T11:01:21.481Z,2.15
2023-03-21T11:02:24.830Z,1.92
2023-03-21T11:03:27.610Z,2.07
2023-03-21T11:04:30.774Z,2.48
2023-03-21T11:05:34.264Z,2.25
2023-03-21T11:06:37.257Z,2.29
2023-03-21T11:07:40.726Z,2.21
2023-03-21T11:08:44.145Z,1.87
2023-03-21T11:09:47.044Z,2.08
2023-03-21T11:10:50.380Z,2.49
2023-03-21T11:11:53.767Z,2.25
2023-03-21T11:12:56.652Z,2.12
2023-03-21T11:13:59.319Z,2.14
2023-03-21T11:15:02.492Z,2.12
2023-03-21T11:16:05.278Z,2.10
2023-03-21T11:17:08.500Z,2.35
2023-03-21T11:18:12.246Z,2.33
2023-03-21T11:19:15.734Z,2.59
2023-03-21T11:20:20.970Z,2.86
2023-03-21T11:21:24.041Z,2.54
2023-03-21T11:22:27.129Z,2.58
2023-03-21T11:23:30.219Z,2.58
2023-03-21T11:24:33.432Z,2.71
2023-03-21T11:25:36.867Z,2.91
2023-03-21T11:26:39.863Z,2.64
2023-03-21T11:27:42.344Z,2.30
2023-03-21T11:28:45.600Z,2.52
2023-03-21T11:29:48.995Z,2.55
2023-03-21T11:30:51.831Z,2.40
2023-03-21T11:31:54.656Z,2.29
2023-03-21T11:32:57.530Z,2.38
2023-03-21T11:34:00.201Z,2.52
2023-03-21T11:35:02.950Z,2.55
2023-03-21T11:36:05.984Z,2.48
2023-03-21T11:37:08.907Z,2.55
2023-03-21T11:38:13.398Z,2.52
2023-03-21T11:39:16.009Z,2.43
2023-03-21T11:40:18.671Z,2.42
2023-03-21T11:41:21.342Z,2.67
2023-03-21T11:42:25.833Z,2.48
2023-03-21T11:43:28.333Z,2.81
2023-03-21T11:44:31.097Z,2.35
2023-03-21T11:45:33.775Z,2.72
2023-03-21T11:46:36.568Z,2.62
2023-03-21T11:47:39.290Z,2.74
2023-03-21T11:48:42.286Z,2.89
2023-03-21T11:49:44.955Z,2.63
2023-03-21T11:50:47.624Z,2.58
2023-03-21T11:51:50.687Z,2.62
2023-03-21T11:52:53.563Z,2.55
2023-03-21T11:53:56.537Z,2.40
2023-03-21T11:54:59.318Z,2.68
2023-03-21T11:56:02.193Z,2.92
2023-03-21T11:57:05.467Z,2.55
2023-03-21T11:58:14.708Z,2.94
2023-03-21T11:59:16.126Z,2.78
2023-03-21T12:01:26.904Z,2.26
2023-03-21T12:02:29.723Z,2.28
2023-03-21T12:03:47.122Z,2.44
2023-03-21T12:04:40.405Z,2.58
2023-03-21T12:05:43.209Z,2.73
2023-03-21T12:06:46.391Z,2.85
2023-03-21T12:07:49.527Z,2.52
2023-03-21T12:08:52.565Z,2.73
2023-03-21T12:09:55.525Z,2.54
2023-03-21T12:10:58.604Z,2.48
2023-03-21T12:12:01.689Z,2.83
2023-03-21T12:13:04.766Z,2.43
2023-03-21T12:14:07.745Z,2.44
2023-03-21T12:15:10.940Z,2.12
2023-03-21T12:16:13.991Z,2.57
2023-03-21T12:17:16.707Z,2.89
2023-03-21T12:18:19.361Z,2.62
2023-03-21T12:19:22.220Z,2.42
2023-03-21T12:20:25.300Z,2.63
2023-03-21T12:21:28.580Z,2.61
2023-03-21T12:22:31.465Z,2.41
2023-03-21T12:23:34.374Z,2.30
2023-03-21T12:24:37.560Z,2.63
2023-03-21T12:25:40.489Z,2.51
2023-03-21T12:26:44.810Z,2.48
2023-03-21T12:27:47.780Z,2.74
2023-03-21T12:28:50.546Z,2.36
2023-03-21T12:29:53.727Z,2.42
2023-03-21T12:30:56.856Z,2.41
2023-03-21T12:31:59.891Z,2.41
2023-03-21T12:33:02.970Z,2.05
2023-03-21T12:34:06.044Z,2.62
2023-03-21T12:35:09.023Z,2.53
2023-03-21T12:36:11.900Z,2.66
2023-03-21T12:37:15.298Z,2.58
2023-03-21T12:38:18.470Z,2.54
2023-03-21T12:39:21.438Z,2.28
2023-03-21T12:40:24.109Z,2.67
2023-03-21T12:41:28.475Z,3.05
2023-03-21T12:42:31.204Z,2.85
2023-03-21T12:43:34.190Z,2.96
2023-03-21T12:44:36.940Z,2.81
2023-03-21T12:45:47.124Z,2.52
2023-03-21T12:46:44.281Z,2.82
2023-03-21T12:47:47.581Z,2.89
2023-03-21T12:48:50.489Z,2.81
2023-03-21T12:49:55.182Z,2.58
2023-03-21T12:50:57.280Z,2.86
2023-03-21T12:52:00.106Z,2.82
2023-03-21T12:53:03.378Z,2.90
2023-03-21T12:54:06.107Z,2.58
2023-03-21T12:55:09.002Z,2.24
2023-03-21T12:56:12.062Z,2.68
2023-03-21T12:57:15.021Z,3.28
2023-03-21T12:58:18.227Z,2.81
2023-03-21T12:59:21.074Z,2.75
2023-03-21T13:00:24.023Z,2.70
2023-03-21T13:01:27.066Z,2.90
2023-03-21T13:02:30.118Z,3.10
2023-03-21T13:03:39.912Z,2.50
2023-03-21T13:04:37.782Z,2.29
2023-03-21T13:05:40.684Z,2.35
2023-03-21T13:06:43.755Z,2.38
2023-03-21T13:07:46.734Z,2.17
2023-03-21T13:08:49.721Z,2.35
2023-03-21T13:09:52.846Z,2.66
2023-03-21T13:10:55.763Z,2.85
2023-03-21T13:11:58.537Z,2.31
2023-03-21T13:13:01.363Z,2.87
2023-03-21T13:14:04.305Z,2.32
2023-03-21T13:15:12.450Z,2.58
2023-03-21T13:16:11.150Z,2.48
2023-03-21T13:17:13.751Z,2.50
2023-03-21T13:18:16.605Z,2.05
2023-03-21T13:19:19.587Z,2.61
2023-03-21T13:20:22.563Z,2.32
2023-03-21T13:21:25.541Z,2.30
2023-03-21T13:22:28.522Z,2.26
2023-03-21T13:23:31.290Z,2.15
2023-03-21T13:24:34.267Z,2.15
2023-03-21T13:25:37.259Z,2.42
2023-03-21T13:26:40.215Z,2.28
2023-03-21T13:27:42.884Z,1.94
2023-03-21T13:28:45.757Z,2.03
2023-03-21T13:29:48.749Z,2.28
2023-03-21T13:30:51.872Z,1.92
2023-03-21T13:31:57.185Z,2.24
2023-03-21T13:32:59.207Z,2.18
2023-03-21T13:34:02.504Z,2.15
2023-03-21T13:35:05.464Z,1.96
2023-03-21T13:36:08.509Z,2.15
2023-03-21T13:37:11.324Z,2.55
2023-03-21T13:38:14.240Z,2.46
2023-03-21T13:39:17.172Z,2.48
2023-03-21T13:40:20.164Z,2.57
2023-03-21T13:41:23.128Z,2.59
2023-03-21T13:42:26.213Z,2.22
2023-03-21T13:43:28.978Z,2.28
2023-03-21T13:44:31.885Z,2.19
2023-03-21T13:45:34.886Z,2.34
2023-03-21T13:46:50.594Z,2.12
2023-03-21T13:47:44.190Z,2.21
2023-03-21T13:48:58.052Z,2.55
2023-03-21T13:49:51.355Z,2.39
2023-03-21T13:50:54.438Z,2.35
2023-03-21T13:51:57.407Z,2.74
2023-03-21T13:53:00.130Z,2.38
2023-03-21T13:54:02.869Z,2.50
2023-03-21T13:55:05.723Z,2.62
2023-03-21T13:56:08.655Z,3.42
2023-03-21T13:57:11.271Z,3.92
2023-03-21T13:58:14.352Z,3.75
2023-03-21T13:59:17.535Z,3.02
2023-03-21T14:00:20.209Z,2.87
2023-03-21T14:01:23.289Z,2.51
2023-03-21T14:02:26.259Z,2.38